Time;durP1;ratioP1;P1;durP2;ratioP2;P2;SDS_P1;SDS_P2;PMS_P1;PMS_P2;Temp;Humidity;BMP_temperature;BMP_pressure;BME280_temperature;BME280_humidity;BME280_pressure;Samples;Min_cycle;Max_cycle;Signal;HPM_P1;HPM_P2
2022/03/27 00:00:16;;;;;;;5.53;4.22;;;24.40;42.90;;;;;;6135137;28;80519;-65
2022/03/27 00:03:16;;;;;;;6.28;4.30;;;24.40;42.90;;;;;;6143407;28;80413;-66
2022/03/27 00:06:17;;;;;;;6.45;4.28;;;24.40;43.00;;;;;;6142123;28;80720;-66
2022/03/27 00:09:18;;;;;;;5.95;4.82;;;24.40;42.90;;;;;;6159384;28;80326;-66
2022/03/27 00:12:18;;;;;;;7.10;4.72;;;24.40;42.70;;;;;;6158801;28;80103;-66
2022/03/27 00:15:19;;;;;;;6.88;4.43;;;24.40;43.00;;;;;;6159273;28;81567;-66
2022/03/27 00:18:19;;;;;;;8.13;4.43;;;24.40;42.70;;;;;;6140587;28;81991;-65
2022/03/27 00:21:23;;;;;;;6.00;4.47;;;24.40;42.40;;;;;;6152544;28;84696;-66
2022/03/27 00:24:23;;;;;;;7.38;4.03;;;24.40;42.10;;;;;;6152363;28;80369;-66
2022/03/27 00:27:24;;;;;;;5.80;4.10;;;24.40;42.50;;;;;;6149151;28;80455;-66
2022/03/27 00:30:26;;;;;;;8.55;4.90;;;24.40;42.80;;;;;;6142765;28;80500;-67
2022/03/27 00:33:26;;;;;;;6.78;4.50;;;24.40;43.00;;;;;;6134774;28;80282;-66
2022/03/27 00:36:27;;;;;;;7.25;4.63;;;24.30;42.60;;;;;;6152885;28;80517;-67
2022/03/27 00:39:28;;;;;;;5.57;4.30;;;24.30;42.50;;;;;;6155795;28;80597;-66
2022/03/27 00:42:29;;;;;;;6.95;4.30;;;24.30;42.40;;;;;;6137106;28;80590;-65
2022/03/27 00:45:29;;;;;;;6.65;4.22;;;24.30;42.90;;;;;;6149820;28;80357;-66
2022/03/27 00:48:30;;;;;;;9.80;4.97;;;24.30;42.00;;;;;;6164362;28;80636;-66
2022/03/27 00:51:30;;;;;;;6.78;4.38;;;24.30;41.70;;;;;;6144951;28;81805;-66
2022/03/27 00:54:31;;;;;;;6.57;4.53;;;24.30;41.60;;;;;;6153826;28;81634;-66
2022/03/27 00:57:31;;;;;;;7.10;4.43;;;24.30;40.60;;;;;;6139412;28;79994;-66
2022/03/27 01:00:34;;;;;;;5.82;4.30;;;24.30;40.80;;;;;;6143583;28;80601;-66
2022/03/27 01:03:34;;;;;;;5.78;3.95;;;24.30;40.70;;;;;;6162963;28;80484;-66
2022/03/27 01:06:35;;;;;;;7.85;4.63;;;24.30;40.30;;;;;;6162600;28;80645;-66
2022/03/27 01:09:35;;;;;;;6.05;4.07;;;24.30;39.90;;;;;;6143138;28;81921;-66
2022/03/27 01:12:36;;;;;;;6.47;3.80;;;24.30;39.60;;;;;;6155505;28;80358;-65
2022/03/27 01:15:37;;;;;;;8.30;4.05;;;24.30;39.60;;;;;;6162252;28;80456;-66
2022/03/27 01:18:37;;;;;;;8.73;3.97;;;24.30;39.70;;;;;;6140919;28;80667;-66
2022/03/27 01:21:38;;;;;;;5.70;3.30;;;24.30;39.30;;;;;;6137520;28;82318;-66
2022/03/27 01:24:38;;;;;;;5.93;3.60;;;24.30;39.10;;;;;;6146641;28;80126;-67
2022/03/27 01:27:39;;;;;;;6.03;3.58;;;24.30;38.50;;;;;;6150195;28;80353;-67
2022/03/27 01:30:40;;;;;;;5.22;3.15;;;24.30;38.60;;;;;;6137609;28;83491;-66
2022/03/27 01:33:40;;;;;;;7.05;3.72;;;24.30;38.50;;;;;;6158916;28;80461;-66
2022/03/27 01:36:41;;;;;;;6.13;3.33;;;24.30;38.10;;;;;;6160669;28;80882;-66
2022/03/27 01:39:41;;;;;;;3.53;2.60;;;24.30;38.10;;;;;;6154964;28;81569;-65
2022/03/27 01:42:42;;;;;;;3.92;2.53;;;24.20;37.80;;;;;;6138094;28;82204;-65
2022/03/27 01:45:43;;;;;;;4.68;3.13;;;24.30;37.50;;;;;;6138112;28;80953;-65
2022/03/27 01:48:43;;;;;;;5.65;3.00;;;24.30;38.30;;;;;;6139186;28;79955;-66
2022/03/27 01:51:44;;;;;;;5.40;2.70;;;24.20;37.30;;;;;;6160289;28;81761;-65
2022/03/27 01:54:44;;;;;;;6.00;2.50;;;24.20;37.40;;;;;;6146996;28;80651;-65
2022/03/27 01:57:45;;;;;;;5.45;3.10;;;24.20;37.10;;;;;;6136383;28;81714;-65
2022/03/27 02:00:45;;;;;;;3.33;2.65;;;24.30;36.90;;;;;;6148236;28;81429;-65
2022/03/27 02:03:46;;;;;;;4.47;2.30;;;24.20;36.70;;;;;;6161045;28;81021;-67
2022/03/27 02:06:47;;;;;;;4.78;2.40;;;24.30;37.00;;;;;;6160108;28;80590;-66
2022/03/27 02:09:48;;;;;;;4.78;2.65;;;24.20;36.70;;;;;;6157144;28;81693;-65
2022/03/27 02:12:48;;;;;;;5.28;2.40;;;24.20;36.40;;;;;;6137003;28;80363;-64
2022/03/27 02:15:49;;;;;;;4.30;2.63;;;24.20;37.10;;;;;;6147823;28;80333;-64
2022/03/27 02:18:50;;;;;;;5.50;2.00;;;24.20;37.30;;;;;;6158186;28;80896;-63
2022/03/27 02:21:51;;;;;;;6.18;2.00;;;24.20;37.50;;;;;;6155496;28;80628;-64
2022/03/27 02:24:51;;;;;;;4.90;2.10;;;24.20;37.20;;;;;;6149978;28;80327;-64
2022/03/27 02:27:52;;;;;;;2.10;1.90;;;24.20;37.30;;;;;;6149276;28;80604;-65
2022/03/27 02:30:53;;;;;;;3.58;2.47;;;24.20;37.70;;;;;;6160258;28;80234;-65
2022/03/27 02:33:53;;;;;;;5.18;2.65;;;24.20;37.00;;;;;;6160601;28;80817;-65
2022/03/27 02:36:54;;;;;;;3.28;1.90;;;24.20;37.20;;;;;;6160507;28;80351;-64
2022/03/27 02:39:54;;;;;;;3.08;1.83;;;24.20;36.80;;;;;;6140844;28;80458;-65
2022/03/27 02:42:55;;;;;;;4.97;2.30;;;24.20;36.80;;;;;;6140027;28;81298;-65
2022/03/27 02:45:56;;;;;;;2.60;1.70;;;24.10;36.80;;;;;;6157117;28;81422;-65
2022/03/27 02:48:56;;;;;;;2.67;1.75;;;24.20;36.80;;;;;;6148914;28;80634;-65
2022/03/27 02:51:57;;;;;;;3.45;2.15;;;24.10;37.40;;;;;;6160589;28;80108;-65
2022/03/27 02:54:58;;;;;;;3.35;2.00;;;24.10;37.00;;;;;;6160670;28;81484;-65
2022/03/27 02:57:58;;;;;;;4.00;2.17;;;24.10;36.60;;;;;;6141939;28;80847;-65
2022/03/27 03:00:59;;;;;;;4.55;1.92;;;24.10;36.10;;;;;;6152922;28;83408;-64
2022/03/27 03:04:02;;;;;;;5.22;2.33;;;24.10;37.20;;;;;;6149386;28;80394;-64
2022/03/27 03:07:02;;;;;;;3.30;2.10;;;24.10;36.90;;;;;;6143881;28;80988;-64
2022/03/27 03:10:03;;;;;;;3.88;2.22;;;24.10;36.40;;;;;;6136253;28;80641;-65
2022/03/27 03:13:04;;;;;;;5.07;2.00;;;24.10;36.90;;;;;;6157575;28;80376;-65
2022/03/27 03:16:05;;;;;;;4.43;2.20;;;24.10;38.20;;;;;;6158175;28;81941;-64
2022/03/27 03:19:06;;;;;;;2.28;1.65;;;24.10;37.20;;;;;;6149180;28;80472;-65
2022/03/27 03:22:07;;;;;;;3.63;2.22;;;24.10;37.50;;;;;;6142336;28;81550;-65
2022/03/27 03:25:08;;;;;;;3.63;2.15;;;24.20;37.30;;;;;;6150284;28;80504;-65
2022/03/27 03:28:08;;;;;;;4.97;2.25;;;24.30;37.10;;;;;;6149816;28;81649;-65
2022/03/27 03:31:09;;;;;;;7.78;1.83;;;24.20;36.80;;;;;;6137881;28;80217;-65
2022/03/27 03:34:09;;;;;;;4.40;2.08;;;24.30;36.80;;;;;;6135488;28;80589;-64
2022/03/27 03:37:10;;;;;;;4.07;1.98;;;24.30;36.80;;;;;;6140211;28;80422;-64
2022/03/27 03:40:10;;;;;;;6.72;2.13;;;24.30;36.70;;;;;;6156655;28;80989;-65
2022/03/27 03:43:11;;;;;;;4.78;2.17;;;24.30;36.50;;;;;;6160022;28;80503;-65
2022/03/27 03:46:12;;;;;;;3.75;2.35;;;24.30;36.30;;;;;;6159414;28;80129;-64
2022/03/27 03:49:12;;;;;;;4.82;2.35;;;24.30;36.80;;;;;;6159701;28;81557;-65
2022/03/27 03:52:13;;;;;;;5.53;2.13;;;24.30;36.00;;;;;;6158002;28;82494;-64
2022/03/27 03:55:13;;;;;;;6.45;2.40;;;24.40;36.10;;;;;;6140635;28;80269;-64
2022/03/27 03:58:14;;;;;;;2.88;1.90;;;24.40;36.00;;;;;;6151231;28;80380;-65
2022/03/27 04:01:14;;;;;;;5.43;2.17;;;24.40;35.90;;;;;;6142605;28;80420;-65
2022/03/27 04:04:15;;;;;;;4.13;2.30;;;24.40;35.70;;;;;;6149502;28;81609;-65
2022/03/27 04:07:15;;;;;;;6.28;2.33;;;24.40;35.60;;;;;;6134977;28;80549;-65
2022/03/27 04:10:16;;;;;;;3.47;2.20;;;24.40;35.50;;;;;;6137706;28;80535;-65
2022/03/27 04:13:16;;;;;;;4.00;1.90;;;24.40;35.40;;;;;;6159390;28;80185;-65
2022/03/27 04:16:17;;;;;;;3.47;2.10;;;24.40;35.40;;;;;;6154576;28;81123;-66
2022/03/27 04:19:17;;;;;;;3.25;2.08;;;24.40;35.30;;;;;;6152616;28;80523;-65
2022/03/27 04:22:18;;;;;;;4.22;2.03;;;24.40;35.30;;;;;;6146003;28;81526;-72
2022/03/27 04:25:18;;;;;;;6.93;2.30;;;24.40;35.30;;;;;;6148708;28;79972;-71
2022/03/27 04:28:19;;;;;;;4.70;2.15;;;24.40;35.20;;;;;;6151241;28;80344;-67
2022/03/27 04:31:20;;;;;;;5.63;2.85;;;24.50;35.20;;;;;;6136497;28;87169;-65
2022/03/27 04:34:20;;;;;;;6.32;1.80;;;24.50;35.60;;;;;;6150383;28;80868;-65
2022/03/27 04:37:21;;;;;;;6.10;1.90;;;24.50;35.50;;;;;;6136262;28;80774;-68
2022/03/27 04:40:21;;;;;;;6.55;2.58;;;24.60;35.40;;;;;;6154367;28;80668;-66
2022/03/27 04:43:25;;;;;;;3.05;1.60;;;24.40;35.20;;;;;;6156169;28;80633;-69
2022/03/27 04:46:26;;;;;;;2.55;1.70;;;24.30;35.40;;;;;;6157963;28;80458;-69
2022/03/27 04:49:26;;;;;;;2.33;1.17;;;24.10;35.30;;;;;;6157394;28;80249;-68
2022/03/27 04:52:27;;;;;;;3.15;1.10;;;24.10;35.20;;;;;;6151395;28;81348;-68
2022/03/27 04:55:28;;;;;;;5.38;1.38;;;24.00;35.20;;;;;;6144752;28;80947;-69
2022/03/27 04:58:28;;;;;;;3.20;1.58;;;23.90;35.40;;;;;;6158075;28;80497;-69
2022/03/27 05:01:29;;;;;;;1.70;1.20;;;24.00;35.40;;;;;;6149040;28;80779;-68
2022/03/27 05:04:30;;;;;;;2.22;1.63;;;24.00;35.50;;;;;;6156434;28;80914;-67
2022/03/27 05:07:30;;;;;;;2.78;1.60;;;24.10;35.60;;;;;;6155225;28;80827;-67
2022/03/27 05:10:31;;;;;;;2.35;1.30;;;24.20;35.40;;;;;;6143520;28;80478;-68
2022/03/27 05:13:31;;;;;;;4.32;1.40;;;24.20;35.90;;;;;;6148049;28;80943;-68
2022/03/27 05:16:32;;;;;;;3.33;1.52;;;24.30;35.60;;;;;;6135472;28;80262;-67
2022/03/27 05:19:33;;;;;;;3.63;2.00;;;24.30;35.60;;;;;;6152231;28;80138;-67
2022/03/27 05:22:33;;;;;;;7.43;1.83;;;24.30;35.60;;;;;;6156283;28;80323;-67
2022/03/27 05:25:40;;;;;;;5.00;2.42;;;24.40;36.00;;;;;;6138324;28;81420;-70
2022/03/27 05:28:41;;;;;;;9.13;2.05;;;24.40;35.80;;;;;;6139588;28;82281;-68
2022/03/27 05:31:41;;;;;;;6.13;2.25;;;24.40;36.00;;;;;;6161779;28;81566;-70
2022/03/27 05:34:42;;;;;;;5.05;2.33;;;24.40;35.80;;;;;;6156915;28;80219;-68
2022/03/27 05:37:42;;;;;;;5.55;2.22;;;24.40;35.90;;;;;;6150131;28;80367;-69
2022/03/27 05:40:43;;;;;;;2.80;1.83;;;24.50;36.30;;;;;;6148644;28;80713;-66
2022/03/27 05:43:43;;;;;;;4.47;2.10;;;24.50;36.30;;;;;;6148214;28;81331;-72
2022/03/27 05:46:44;;;;;;;8.07;2.15;;;24.50;36.50;;;;;;6138470;28;80457;-69
2022/03/27 05:49:45;;;;;;;5.57;2.47;;;24.50;36.30;;;;;;6149305;28;84766;-66
2022/03/27 05:52:45;;;;;;;3.88;2.22;;;24.50;36.10;;;;;;6153800;28;80853;-68
2022/03/27 05:55:47;;;;;;;4.15;2.15;;;24.60;36.00;;;;;;6153117;28;80644;-65
2022/03/27 05:58:47;;;;;;;8.05;2.50;;;24.50;35.60;;;;;;6160932;28;80791;-65
2022/03/27 06:01:48;;;;;;;5.25;2.97;;;24.20;37.00;;;;;;6157380;28;80574;-67
2022/03/27 06:04:50;;;;;;;7.22;2.45;;;23.90;37.80;;;;;;6160377;28;81380;-67
2022/03/27 06:07:51;;;;;;;3.78;2.22;;;23.80;38.10;;;;;;6141623;28;81475;-75
2022/03/27 06:10:51;;;;;;;6.35;2.63;;;23.70;38.40;;;;;;6158423;28;80048;-76
2022/03/27 06:13:52;;;;;;;6.25;2.22;;;23.70;38.70;;;;;;6161120;28;80227;-67
2022/03/27 06:16:52;;;;;;;3.55;2.15;;;23.60;38.80;;;;;;6161887;28;80672;-66
2022/03/27 06:19:53;;;;;;;5.15;2.15;;;23.60;39.00;;;;;;6160180;28;81433;-66
2022/03/27 06:22:53;;;;;;;2.45;1.80;;;23.60;39.30;;;;;;6161337;28;80478;-66
2022/03/27 06:25:54;;;;;;;4.20;2.22;;;23.60;39.80;;;;;;6160229;28;80667;-67
2022/03/27 06:28:54;;;;;;;4.60;2.22;;;23.60;39.90;;;;;;6161712;28;80470;-68
2022/03/27 06:31:55;;;;;;;4.30;2.38;;;23.70;39.90;;;;;;6149810;28;80278;-67
2022/03/27 06:34:56;;;;;;;4.45;2.08;;;23.70;40.40;;;;;;6137742;28;80274;-65
2022/03/27 06:37:57;;;;;;;3.25;2.42;;;23.70;39.90;;;;;;6143285;28;81181;-67
2022/03/27 06:40:57;;;;;;;3.50;2.00;;;23.80;39.90;;;;;;6157619;28;80526;-67
2022/03/27 06:43:58;;;;;;;5.53;2.70;;;23.70;39.60;;;;;;6142612;28;80648;-67
2022/03/27 06:46:58;;;;;;;4.55;2.20;;;23.70;39.90;;;;;;6159317;28;80245;-67
2022/03/27 06:49:59;;;;;;;4.78;2.40;;;23.80;40.60;;;;;;6159300;28;80447;-67
2022/03/27 06:52:59;;;;;;;6.95;2.72;;;23.90;40.20;;;;;;6152834;28;80601;-68
2022/03/27 06:56:00;;;;;;;5.70;2.28;;;23.80;40.00;;;;;;6154818;28;80941;-64
2022/03/27 06:59:00;;;;;;;7.05;2.58;;;23.90;40.60;;;;;;6147039;28;80458;-69
2022/03/27 07:05:22;;;;;;;5.10;2.85;;;24.00;40.40;;;;;;6160880;28;80868;-69
2022/03/27 07:08:22;;;;;;;7.22;2.38;;;23.90;40.60;;;;;;6142310;28;81997;-68
2022/03/27 07:11:23;;;;;;;5.05;2.45;;;23.90;41.00;;;;;;6141437;28;80072;-67
2022/03/27 07:14:24;;;;;;;8.68;2.72;;;23.90;41.20;;;;;;6145693;28;81442;-67
2022/03/27 07:17:25;;;;;;;4.57;1.80;;;24.00;41.20;;;;;;6142414;28;81006;-68
2022/03/27 07:20:26;;;;;;;3.92;2.10;;;23.90;41.00;;;;;;6144219;28;80925;-70
2022/03/27 07:23:27;;;;;;;6.88;2.30;;;24.00;41.00;;;;;;6139188;28;80335;-65
2022/03/27 07:26:27;;;;;;;3.88;2.53;;;24.00;41.00;;;;;;6144064;28;80810;-69
2022/03/27 07:29:30;;;;;;;7.22;2.63;;;24.00;40.90;;;;;;6148482;28;81467;-71
2022/03/27 07:32:31;;;;;;;2.72;2.00;;;24.10;40.80;;;;;;6143625;28;80410;-70
2022/03/27 07:35:31;;;;;;;4.82;2.00;;;24.10;40.50;;;;;;6149171;28;80775;-67
2022/03/27 07:38:32;;;;;;;4.90;1.98;;;24.10;40.40;;;;;;6155705;28;81326;-68
2022/03/27 07:41:32;;;;;;;2.70;2.10;;;24.10;40.20;;;;;;6153357;28;81210;-66
2022/03/27 07:44:33;;;;;;;2.55;1.77;;;24.10;40.40;;;;;;6145658;28;80732;-63
2022/03/27 07:47:33;;;;;;;6.90;2.20;;;24.10;39.80;;;;;;6157505;28;80158;-70
2022/03/27 07:50:34;;;;;;;4.38;1.90;;;24.20;38.40;;;;;;6145510;28;80427;-75
2022/03/27 07:53:35;;;;;;;2.83;1.45;;;24.20;37.70;;;;;;6159631;28;81878;-68
2022/03/27 07:56:36;;;;;;;7.32;2.25;;;24.10;36.90;;;;;;6160533;28;80274;-81
2022/03/27 07:59:37;;;;;;;6.03;2.00;;;24.10;36.60;;;;;;6159747;28;80352;-71
2022/03/27 08:02:37;;;;;;;3.10;2.00;;;24.00;36.50;;;;;;6138075;28;80790;-76
2022/03/27 08:05:38;;;;;;;5.50;1.77;;;24.10;37.00;;;;;;6158310;28;81477;-67
2022/03/27 08:08:38;;;;;;;4.88;1.58;;;24.10;36.90;;;;;;6159383;28;80366;-74
2022/03/27 08:11:41;;;;;;;3.00;1.50;;;24.20;36.90;;;;;;6159626;28;80308;-68
2022/03/27 08:14:43;;;;;;;1.95;1.70;;;24.20;36.70;;;;;;6147519;28;81812;-69
2022/03/27 08:17:44;;;;;;;5.72;1.77;;;24.20;36.50;;;;;;6151939;28;80262;-70
2022/03/27 08:20:45;;;;;;;3.15;2.03;;;24.20;36.30;;;;;;6143176;28;80779;-74
2022/03/27 08:23:45;;;;;;;4.05;1.42;;;24.30;36.20;;;;;;6155031;28;80234;-69
2022/03/27 08:27:02;;;;;;;3.38;1.75;;;24.30;36.00;;;;;;6138053;28;80426;-73
2022/03/27 08:30:03;;;;;;;1.58;1.13;;;24.30;36.50;;;;;;6151153;28;80486;-74
2022/03/27 08:33:04;;;;;;;4.82;1.80;;;24.30;35.80;;;;;;6147658;28;80922;-74
2022/03/27 08:36:04;;;;;;;2.67;1.45;;;24.30;35.70;;;;;;6149983;28;80858;-72
2022/03/27 08:39:07;;;;;;;1.65;1.13;;;24.30;35.70;;;;;;6152338;28;80186;-72
2022/03/27 08:42:07;;;;;;;2.45;1.17;;;24.30;35.70;;;;;;6155890;28;80468;-73
2022/03/27 08:45:08;;;;;;;4.18;2.05;;;24.30;35.50;;;;;;6145023;28;81562;-74
2022/03/27 08:48:08;;;;;;;1.85;1.40;;;24.30;35.40;;;;;;6140928;28;80455;-73
2022/03/27 08:51:10;;;;;;;1.70;1.20;;;24.30;35.40;;;;;;6154970;28;81167;-74
2022/03/27 08:54:10;;;;;;;2.88;1.50;;;24.30;35.30;;;;;;6147981;28;80451;-73
2022/03/27 08:57:11;;;;;;;1.85;1.27;;;24.40;35.30;;;;;;6146380;28;80562;-75
2022/03/27 09:00:13;;;;;;;2.03;1.25;;;24.40;35.10;;;;;;6149984;28;80259;-75
2022/03/27 09:03:14;;;;;;;8.05;1.48;;;24.40;35.10;;;;;;6145795;28;82273;-69
2022/03/27 09:06:15;;;;;;;3.33;1.30;;;24.40;35.40;;;;;;6159005;28;80432;-74
2022/03/27 09:09:16;;;;;;;5.10;1.90;;;24.40;35.50;;;;;;6144404;28;82081;-73
2022/03/27 09:12:16;;;;;;;3.58;1.80;;;24.50;35.90;;;;;;6151879;28;81561;-70
2022/03/27 09:15:19;;;;;;;3.67;1.50;;;24.50;36.20;;;;;;6149990;28;80388;-67
2022/03/27 09:18:20;;;;;;;3.80;1.80;;;24.60;33.80;;;;;;6160935;28;86074;-69
2022/03/27 09:21:20;;;;;;;4.15;1.52;;;24.60;32.50;;;;;;6151448;28;81758;-67
2022/03/27 09:24:21;;;;;;;2.97;1.83;;;24.50;31.40;;;;;;6145188;28;81834;-65
2022/03/27 09:27:21;;;;;;;3.72;1.67;;;24.40;30.60;;;;;;6154438;28;82235;-67
2022/03/27 09:30:22;;;;;;;3.33;1.42;;;24.40;30.40;;;;;;6158803;28;81750;-66
2022/03/27 09:33:23;;;;;;;4.13;1.50;;;24.60;29.50;;;;;;6159756;28;81744;-66
2022/03/27 09:36:23;;;;;;;5.20;1.65;;;24.50;28.90;;;;;;6157987;28;80557;-69
2022/03/27 09:39:25;;;;;;;2.50;1.67;;;24.60;29.20;;;;;;6158715;28;81639;-68
2022/03/27 09:42:25;;;;;;;2.95;1.55;;;24.60;29.10;;;;;;6158394;28;81762;-66
2022/03/27 09:45:26;;;;;;;2.03;1.30;;;24.60;28.90;;;;;;6155049;28;80896;-75
2022/03/27 09:48:27;;;;;;;3.88;1.48;;;24.60;28.60;;;;;;6155402;28;81461;-67
2022/03/27 09:51:27;;;;;;;2.75;1.50;;;24.60;28.00;;;;;;6145591;28;82553;-65
2022/03/27 09:54:28;;;;;;;7.38;2.03;;;24.70;28.00;;;;;;6137245;28;81613;-65
2022/03/27 09:57:28;;;;;;;4.22;1.67;;;24.70;27.60;;;;;;6136072;28;82004;-65
2022/03/27 10:00:29;;;;;;;4.07;2.05;;;24.70;28.40;;;;;;6142953;28;81163;-65
2022/03/27 10:03:29;;;;;;;5.40;1.90;;;24.70;27.50;;;;;;6161344;28;81217;-66
2022/03/27 10:06:30;;;;;;;3.42;1.55;;;24.70;27.10;;;;;;6161023;28;82076;-65
2022/03/27 10:09:37;;;;;;;16.08;2.05;;;24.70;26.80;;;;;;6140949;28;81271;-65
2022/03/27 10:12:38;;;;;;;4.47;1.83;;;24.70;27.60;;;;;;6136975;28;81465;-66
2022/03/27 10:15:39;;;;;;;1.70;1.40;;;24.70;27.40;;;;;;6135190;28;80239;-64
2022/03/27 10:18:39;;;;;;;2.47;1.50;;;24.80;27.00;;;;;;6137215;28;81804;-65
2022/03/27 10:21:40;;;;;;;2.67;1.50;;;24.90;27.70;;;;;;6143724;28;81079;-67
2022/03/27 10:24:41;;;;;;;5.35;1.50;;;24.90;27.80;;;;;;6137556;28;80260;-65
2022/03/27 10:27:42;;;;;;;2.83;1.63;;;24.90;27.10;;;;;;6136754;28;81597;-66
2022/03/27 10:30:43;;;;;;;2.17;1.38;;;24.90;27.20;;;;;;6153304;28;80691;-66
2022/03/27 10:33:44;;;;;;;3.92;1.30;;;24.90;26.70;;;;;;6144341;28;80368;-65
2022/03/27 10:36:44;;;;;;;3.00;1.60;;;25.00;26.90;;;;;;6142565;28;81819;-65
2022/03/27 10:39:45;;;;;;;3.80;1.70;;;25.00;27.60;;;;;;6153513;28;84870;-66
2022/03/27 10:42:45;;;;;;;2.55;1.27;;;25.00;26.60;;;;;;6140921;28;80644;-65
2022/03/27 10:45:46;;;;;;;1.55;1.40;;;25.10;27.00;;;;;;6148213;28;81765;-66
2022/03/27 10:48:47;;;;;;;5.40;1.63;;;25.10;26.90;;;;;;6155290;28;81916;-67
2022/03/27 10:51:47;;;;;;;4.15;1.70;;;25.10;26.90;;;;;;6156524;28;82233;-64
2022/03/27 10:54:48;;;;;;;1.67;1.20;;;25.20;26.90;;;;;;6135060;28;81588;-66
2022/03/27 10:57:51;;;;;;;2.00;1.40;;;25.20;26.60;;;;;;6136390;28;81945;-64
2022/03/27 11:00:52;;;;;;;1.77;1.20;;;25.20;26.40;;;;;;6151377;28;80245;-65
2022/03/27 11:04:04;;;;;;;5.45;2.03;;;25.20;26.80;;;;;;6160461;28;80697;-64
2022/03/27 11:07:04;;;;;;;1.17;1.05;;;25.20;26.50;;;;;;6160460;28;80653;-64
2022/03/27 11:10:05;;;;;;;6.40;1.48;;;25.20;25.40;;;;;;6158899;28;80403;-65
2022/03/27 11:13:05;;;;;;;4.03;1.42;;;25.10;25.70;;;;;;6137023;28;81716;-65
2022/03/27 11:16:06;;;;;;;2.67;1.30;;;25.10;24.90;;;;;;6144901;28;80450;-66
2022/03/27 11:19:06;;;;;;;3.88;1.85;;;25.10;25.30;;;;;;6156122;28;80419;-64
2022/03/27 11:22:07;;;;;;;6.32;2.28;;;25.10;25.30;;;;;;6154880;28;81045;-65
2022/03/27 11:25:07;;;;;;;6.53;1.80;;;25.10;25.30;;;;;;6155270;28;81329;-64
2022/03/27 11:28:08;;;;;;;3.55;1.60;;;25.20;25.80;;;;;;6142508;28;80242;-65
2022/03/27 11:31:08;;;;;;;3.83;1.40;;;25.20;25.50;;;;;;6150789;28;80445;-65
2022/03/27 11:34:09;;;;;;;2.65;1.70;;;25.20;25.70;;;;;;6155047;28;81617;-65
2022/03/27 11:37:09;;;;;;;2.90;1.38;;;25.20;25.60;;;;;;6157693;28;80261;-65
2022/03/27 11:40:10;;;;;;;3.20;1.50;;;25.20;25.30;;;;;;6158905;28;86152;-65
2022/03/27 11:43:10;;;;;;;3.17;1.60;;;25.30;25.40;;;;;;6158799;28;81462;-66
2022/03/27 11:46:11;;;;;;;2.40;1.42;;;25.30;25.60;;;;;;6157181;28;80505;-67
2022/03/27 11:49:12;;;;;;;3.58;1.73;;;25.30;25.70;;;;;;6158951;28;80376;-67
2022/03/27 11:52:12;;;;;;;3.95;1.67;;;25.30;25.50;;;;;;6152821;28;81594;-66
2022/03/27 11:55:14;;;;;;;2.47;1.48;;;25.30;25.40;;;;;;6149957;28;80759;-64
2022/03/27 11:58:15;;;;;;;2.70;1.35;;;25.30;25.80;;;;;;6150688;28;80703;-65
2022/03/27 12:01:15;;;;;;;2.15;1.52;;;25.30;25.40;;;;;;6157379;28;80358;-65
2022/03/27 12:04:16;;;;;;;2.38;1.63;;;25.30;25.50;;;;;;6151746;28;81610;-63
2022/03/27 12:07:16;;;;;;;4.50;1.50;;;25.30;25.30;;;;;;6148103;28;80331;-64
2022/03/27 12:10:17;;;;;;;2.00;1.40;;;25.30;25.40;;;;;;6135440;28;81625;-66
2022/03/27 12:13:18;;;;;;;4.90;1.65;;;25.30;25.50;;;;;;6136706;28;80319;-63
2022/03/27 12:16:20;;;;;;;4.85;1.90;;;25.30;25.70;;;;;;6133844;28;81834;-65
2022/03/27 12:19:20;;;;;;;3.50;1.60;;;25.40;25.90;;;;;;6135277;28;80492;-66
2022/03/27 12:22:21;;;;;;;4.13;1.50;;;25.40;25.30;;;;;;6148797;28;80319;-63
2022/03/27 12:25:22;;;;;;;2.38;1.17;;;25.40;24.70;;;;;;6155890;28;82840;-65
2022/03/27 12:31:42;;;;;;;4.00;1.67;;;25.30;25.00;;;;;;6158188;28;80297;-64
2022/03/27 12:34:42;;;;;;;2.85;1.70;;;25.30;25.20;;;;;;6136892;28;80860;-64
2022/03/27 12:37:43;;;;;;;5.60;1.48;;;25.40;25.30;;;;;;6147291;28;80350;-65
2022/03/27 12:40:43;;;;;;;2.30;1.50;;;25.40;25.10;;;;;;6144986;28;80445;-63
2022/03/27 12:43:44;;;;;;;3.05;1.42;;;25.40;25.10;;;;;;6136255;28;81220;-66
2022/03/27 12:46:44;;;;;;;2.65;1.55;;;25.40;25.10;;;;;;6147357;28;80589;-65
2022/03/27 12:49:45;;;;;;;3.15;1.67;;;25.40;25.40;;;;;;6146551;28;86151;-64
2022/03/27 12:52:46;;;;;;;2.67;1.45;;;25.40;25.00;;;;;;6144406;28;80597;-66
2022/03/27 12:55:46;;;;;;;5.05;1.83;;;25.40;25.40;;;;;;6156151;28;82054;-65
2022/03/27 12:58:47;;;;;;;3.40;1.70;;;25.50;25.00;;;;;;6152223;28;80445;-66
2022/03/27 13:01:47;;;;;;;2.65;1.35;;;25.40;25.20;;;;;;6155492;28;80403;-66
2022/03/27 13:04:48;;;;;;;3.08;1.73;;;25.40;25.40;;;;;;6150035;28;80347;-66
2022/03/27 13:07:48;;;;;;;2.88;1.35;;;25.50;25.80;;;;;;6153175;28;80726;-65
2022/03/27 13:10:49;;;;;;;2.80;1.42;;;25.50;25.00;;;;;;6154953;28;80452;-65
2022/03/27 13:13:49;;;;;;;4.78;2.35;;;25.40;24.70;;;;;;6155033;28;80950;-67
2022/03/27 13:16:50;;;;;;;2.92;1.52;;;25.40;25.20;;;;;;6157966;28;80951;-83
2022/03/27 13:19:50;;;;;;;5.32;1.70;;;25.50;24.90;;;;;;6140223;28;81895;-80
2022/03/27 13:22:51;;;;;;;1.88;1.70;;;25.40;24.80;;;;;;6141191;28;81979;-67
2022/03/27 13:25:51;;;;;;;4.20;1.75;;;25.30;24.70;;;;;;6158202;28;80785;-67
2022/03/27 13:28:52;;;;;;;5.47;1.92;;;25.30;24.80;;;;;;6149073;28;81710;-66
2022/03/27 13:31:53;;;;;;;2.05;1.40;;;25.30;25.10;;;;;;6144903;28;80517;-66
2022/03/27 13:34:53;;;;;;;3.30;1.65;;;25.30;25.20;;;;;;6146642;28;81888;-71
2022/03/27 13:37:54;;;;;;;2.28;1.73;;;25.30;25.00;;;;;;6153180;28;80558;-69
2022/03/27 13:44:17;;;;;;;5.10;1.77;;;25.30;25.10;;;;;;6152795;28;80511;-66
2022/03/27 13:47:18;;;;;;;4.43;1.77;;;25.40;25.30;;;;;;6138429;28;80453;-67
2022/03/27 13:50:18;;;;;;;2.17;1.33;;;25.30;25.10;;;;;;6146853;28;81016;-65
2022/03/27 13:53:19;;;;;;;2.78;1.70;;;25.30;25.00;;;;;;6160914;28;80605;-65
2022/03/27 13:56:19;;;;;;;4.07;1.80;;;25.30;24.80;;;;;;6137639;28;81276;-63
2022/03/27 13:59:20;;;;;;;4.18;2.15;;;25.20;24.70;;;;;;6143149;28;81351;-62
2022/03/27 14:02:21;;;;;;;3.25;1.80;;;25.20;24.60;;;;;;6150802;28;80810;-66
2022/03/27 14:05:22;;;;;;;3.45;1.67;;;25.20;24.40;;;;;;6151349;28;80256;-65
2022/03/27 14:08:22;;;;;;;1.83;1.50;;;25.10;24.60;;;;;;6149242;28;80687;-66
2022/03/27 14:11:23;;;;;;;4.70;1.65;;;25.10;24.60;;;;;;6147580;28;81599;-64
2022/03/27 14:14:23;;;;;;;2.95;1.77;;;25.10;24.70;;;;;;6154986;28;80501;-66
2022/03/27 14:17:24;;;;;;;8.38;1.92;;;25.10;24.50;;;;;;6152620;28;80562;-65
2022/03/27 14:20:24;;;;;;;3.45;2.00;;;25.00;24.70;;;;;;6147094;28;81600;-65
2022/03/27 14:23:25;;;;;;;3.92;1.70;;;25.00;24.80;;;;;;6152285;28;80855;-64
2022/03/27 14:26:26;;;;;;;4.25;2.15;;;25.10;24.90;;;;;;6152157;28;80574;-64
2022/03/27 14:29:26;;;;;;;4.45;1.98;;;25.10;24.90;;;;;;6137559;28;80693;-64
2022/03/27 14:32:27;;;;;;;4.97;1.65;;;25.00;25.20;;;;;;6139039;28;80679;-66
2022/03/27 14:35:28;;;;;;;1.67;1.40;;;25.00;25.30;;;;;;6137683;28;80487;-66
2022/03/27 14:38:28;;;;;;;5.35;2.22;;;24.90;26.90;;;;;;6137221;28;80284;-71
2022/03/27 14:41:29;;;;;;;3.00;1.65;;;24.70;28.00;;;;;;6137305;28;80822;-68
2022/03/27 14:44:29;;;;;;;2.90;1.60;;;24.70;28.90;;;;;;6150791;28;80481;-69
2022/03/27 14:47:33;;;;;;;5.78;1.73;;;24.70;29.50;;;;;;6148824;28;81437;-63
2022/03/27 14:50:33;;;;;;;1.70;1.40;;;24.60;29.60;;;;;;6154344;28;81131;-63
2022/03/27 14:55:57;;;;;;;3.17;1.98;;;24.60;29.90;;;;;;6155730;28;80449;-64
2022/03/27 14:56:54;;;;;;;2.55;1.55;;;24.60;30.50;;;;;;6161344;28;80479;-67
2022/03/27 14:59:55;;;;;;;2.90;1.35;;;24.60;30.90;;;;;;6157602;28;84082;-64
2022/03/27 15:02:55;;;;;;;3.53;1.67;;;24.60;32.00;;;;;;6158101;28;81544;-65
2022/03/27 15:05:57;;;;;;;5.32;1.83;;;24.70;32.60;;;;;;6160633;28;81771;-66
2022/03/27 15:08:58;;;;;;;3.75;1.83;;;24.70;32.80;;;;;;6148467;28;80109;-67
2022/03/27 15:11:59;;;;;;;2.67;1.67;;;24.70;32.80;;;;;;6152315;28;81313;-64
2022/03/27 15:15:00;;;;;;;4.03;1.80;;;24.60;33.00;;;;;;6141394;28;81234;-65
2022/03/27 15:18:01;;;;;;;2.88;1.95;;;24.60;33.00;;;;;;6156054;28;80675;-66
2022/03/27 15:21:01;;;;;;;2.85;1.42;;;24.60;34.10;;;;;;6136101;28;81559;-66
2022/03/27 15:24:02;;;;;;;4.30;1.55;;;24.70;34.40;;;;;;6134680;28;81491;-67
2022/03/27 15:27:03;;;;;;;3.17;1.55;;;24.60;35.00;;;;;;6155938;28;80405;-64
2022/03/27 15:30:03;;;;;;;3.22;1.67;;;24.60;35.50;;;;;;6142445;28;81562;-66
2022/03/27 15:33:04;;;;;;;2.95;1.92;;;24.70;35.50;;;;;;6155279;28;82866;-65
2022/03/27 15:36:04;;;;;;;4.22;1.70;;;24.60;35.10;;;;;;6135636;28;82216;-66
2022/03/27 15:39:05;;;;;;;2.10;1.50;;;24.60;34.00;;;;;;6147961;28;86549;-68
2022/03/27 15:42:06;;;;;;;3.13;1.55;;;24.50;33.20;;;;;;6154539;28;80926;-66
2022/03/27 15:45:06;;;;;;;3.10;1.83;;;24.50;33.00;;;;;;6146759;28;81796;-67
2022/03/27 15:48:07;;;;;;;2.38;1.73;;;24.50;32.30;;;;;;6147971;28;82293;-69
2022/03/27 15:51:07;;;;;;;4.15;1.85;;;24.40;32.50;;;;;;6158348;28;80600;-68